Overview Statistics Trail Chart Weather Telemetry Raw packets
 

This is the latest recevied weather packets stored in our database for station/object W0WC. If no packets are shown the sender has not sent any weather packets the latest 10 day(s).

<< 21 22 23 24 25 26 27 >>
Time Temp. Humidity Pressure Rain* Wind** Luminosity Snow
1788543498 34.44° C 45% 1016 hPa 0 mm - 704 W/m² -
1788543194 35° C 44% 1016.3 hPa 0 mm - 702 W/m² -
1788542890 35° C 44% 1016.4 hPa 0 mm - 698 W/m² -
1788542588 35° C 45% 1016.3 hPa 0 mm - 697 W/m² -
1788542284 35° C 43% 1016.5 hPa 0 mm - 690 W/m² -
1788541979 35° C 44% 1016.4 hPa 0 mm - 689 W/m² -
1788541676 34.44° C 45% 1016.4 hPa 0 mm - 679 W/m² -
1788541371 35° C 45% 1016.5 hPa 0 mm - 673 W/m² -
1788541070 34.44° C 46% 1016.5 hPa 0 mm - 664 W/m² -
1788540764 33.89° C 46% 1016.6 hPa 0 mm - 656 W/m² -
1788540464 33.89° C 47% 1016.5 hPa 0 mm - 645 W/m² -
1788540159 33.89° C 48% 1016.8 hPa 0 mm - 641 W/m² -
1788539856 33.89° C 47% 1016.8 hPa 0 mm - 633 W/m² -
1788539551 33.89° C 49% 1016.7 hPa 0 mm - 624 W/m² -
1788539249 33.89° C 49% 1016.7 hPa 0 mm - 617 W/m² -
1788538945 32.78° C 50% 1016.8 hPa 0 mm - 607 W/m² -
1788538641 32.78° C 50% 1016.7 hPa 0 mm - 591 W/m² -
1788538335 32.78° C 51% 1016.7 hPa 0 mm - 586 W/m² -
1788538031 33.33° C 51% 1016.9 hPa 0 mm - 569 W/m² -
1788537726 33.33° C 49% 1016.9 hPa 0 mm - 563 W/m² -
1788537421 32.22° C 53% 1016.7 hPa 0 mm - 557 W/m² -
1788537121 32.78° C 53% 1016.8 hPa 0 mm - 543 W/m² -
1788536819 32.22° C 54% 1016.7 hPa 0 mm - 530 W/m² -
1788536519 32.78° C 53% 1016.9 hPa 0 mm - 523 W/m² -
1788536214 32.78° C 55% 1016.8 hPa 0 mm - 511 W/m² -

* Rain latest hour (hover to see other rain measurements)
** Current wind speed in m/s (hover to see current wind gust speed)